sensor_id;sensor_type;location;lat;lon;timestamp;temperature;humidity
44513;DHT22;30219;50.588;9.504;2023-05-08T00:00:34;12.30;99.90
44513;DHT22;30219;50.588;9.504;2023-05-08T00:03:00;12.30;99.90
44513;DHT22;30219;50.588;9.504;2023-05-08T00:05:25;12.30;99.90
44513;DHT22;30219;50.588;9.504;2023-05-08T00:07:51;12.20;99.90
44513;DHT22;30219;50.588;9.504;2023-05-08T00:10:17;12.20;99.90
44513;DHT22;30219;50.588;9.504;2023-05-08T00:12:43;12.20;99.90
44513;DHT22;30219;50.588;9.504;2023-05-08T00:15:08;12.20;99.90
44513;DHT22;30219;50.588;9.504;2023-05-08T00:17:34;12.20;99.90
44513;DHT22;30219;50.588;9.504;2023-05-08T00:20:00;12.20;99.90
44513;DHT22;30219;50.588;9.504;2023-05-08T00:22:26;12.10;99.90
44513;DHT22;30219;50.588;9.504;2023-05-08T00:24:51;12.10;99.90
44513;DHT22;30219;50.588;9.504;2023-05-08T00:27:17;12.10;99.90
44513;DHT22;30219;50.588;9.504;2023-05-08T00:29:42;12.10;99.90
44513;DHT22;30219;50.588;9.504;2023-05-08T00:32:08;12.20;99.90
44513;DHT22;30219;50.588;9.504;2023-05-08T00:34:33;12.10;99.90
44513;DHT22;30219;50.588;9.504;2023-05-08T00:36:59;12.10;99.90
44513;DHT22;30219;50.588;9.504;2023-05-08T00:39:25;12.10;99.90
44513;DHT22;30219;50.588;9.504;2023-05-08T00:41:50;12.00;99.90
44513;DHT22;30219;50.588;9.504;2023-05-08T00:44:16;12.00;99.90
44513;DHT22;30219;50.588;9.504;2023-05-08T00:46:41;12.00;99.90
44513;DHT22;30219;50.588;9.504;2023-05-08T00:49:07;12.00;99.90
44513;DHT22;30219;50.588;9.504;2023-05-08T00:51:39;12.00;99.90
44513;DHT22;30219;50.588;9.504;2023-05-08T00:54:05;12.00;99.90
44513;DHT22;30219;50.588;9.504;2023-05-08T00:56:31;11.90;99.90
44513;DHT22;30219;50.588;9.504;2023-05-08T00:58:56;12.00;99.90
44513;DHT22;30219;50.588;9.504;2023-05-08T01:01:24;12.00;99.90
44513;DHT22;30219;50.588;9.504;2023-05-08T01:03:49;12.00;99.90
44513;DHT22;30219;50.588;9.504;2023-05-08T01:06:15;11.90;99.90
44513;DHT22;30219;50.588;9.504;2023-05-08T01:08:42;11.90;99.90
44513;DHT22;30219;50.588;9.504;2023-05-08T01:11:27;11.90;99.90
44513;DHT22;30219;50.588;9.504;2023-05-08T01:16:43;11.80;99.90
44513;DHT22;30219;50.588;9.504;2023-05-08T01:19:29;11.80;99.90
44513;DHT22;30219;50.588;9.504;2023-05-08T01:24:45;11.80;99.90
44513;DHT22;30219;50.588;9.504;2023-05-08T01:32:41;11.70;99.90
44513;DHT22;30219;50.588;9.504;2023-05-08T01:35:28;11.70;99.90
44513;DHT22;30219;50.588;9.504;2023-05-08T01:42:57;11.60;99.90
44513;DHT22;30219;50.588;9.504;2023-05-08T01:45:35;11.60;99.90
44513;DHT22;30219;50.588;9.504;2023-05-08T01:48:48;11.60;99.90
44513;DHT22;30219;50.588;9.504;2023-05-08T01:50:48;11.60;99.90
44513;DHT22;30219;50.588;9.504;2023-05-08T01:55:42;11.50;99.90
44513;DHT22;30219;50.588;9.504;2023-05-08T01:58:08;11.60;99.90
44513;DHT22;30219;50.588;9.504;2023-05-08T02:00:35;11.60;99.90
44513;DHT22;30219;50.588;9.504;2023-05-08T02:03:02;11.60;99.90
44513;DHT22;30219;50.588;9.504;2023-05-08T02:05:30;11.60;99.90
44513;DHT22;30219;50.588;9.504;2023-05-08T02:07:56;11.60;99.90
44513;DHT22;30219;50.588;9.504;2023-05-08T02:10:22;11.60;99.90
44513;DHT22;30219;50.588;9.504;2023-05-08T02:12:48;11.50;99.90
44513;DHT22;30219;50.588;9.504;2023-05-08T02:15:14;11.50;99.90
44513;DHT22;30219;50.588;9.504;2023-05-08T02:17:40;11.50;99.90
44513;DHT22;30219;50.588;9.504;2023-05-08T02:20:06;11.50;99.90
44513;DHT22;30219;50.588;9.504;2023-05-08T02:22:39;11.50;99.90
44513;DHT22;30219;50.588;9.504;2023-05-08T02:25:06;11.40;99.90
44513;DHT22;30219;50.588;9.504;2023-05-08T02:27:31;11.40;99.90
44513;DHT22;30219;50.588;9.504;2023-05-08T02:29:57;11.40;99.90
44513;DHT22;30219;50.588;9.504;2023-05-08T02:32:24;11.40;99.90
44513;DHT22;30219;50.588;9.504;2023-05-08T02:34:49;11.30;99.90
44513;DHT22;30219;50.588;9.504;2023-05-08T02:37:17;11.30;99.90
44513;DHT22;30219;50.588;9.504;2023-05-08T02:39:44;11.30;99.90
44513;DHT22;30219;50.588;9.504;2023-05-08T02:42:10;11.20;99.90
44513;DHT22;30219;50.588;9.504;2023-05-08T02:44:36;11.10;99.90
44513;DHT22;30219;50.588;9.504;2023-05-08T02:47:09;11.10;99.90
44513;DHT22;30219;50.588;9.504;2023-05-08T02:49:43;11.10;99.90
44513;DHT22;30219;50.588;9.504;2023-05-08T02:52:24;11.10;99.90
44513;DHT22;30219;50.588;9.504;2023-05-08T02:55:27;11.00;99.90
44513;DHT22;30219;50.588;9.504;2023-05-08T02:57:47;11.00;99.90
44513;DHT22;30219;50.588;9.504;2023-05-08T03:00:15;10.90;99.90
44513;DHT22;30219;50.588;9.504;2023-05-08T03:02:43;10.90;99.90
44513;DHT22;30219;50.588;9.504;2023-05-08T03:05:14;10.90;99.90
44513;DHT22;30219;50.588;9.504;2023-05-08T03:07:40;10.90;99.90
44513;DHT22;30219;50.588;9.504;2023-05-08T03:10:09;10.90;99.90
44513;DHT22;30219;50.588;9.504;2023-05-08T03:12:35;10.90;99.90
44513;DHT22;30219;50.588;9.504;2023-05-08T03:15:11;10.80;99.90
44513;DHT22;30219;50.588;9.504;2023-05-08T03:17:38;10.80;99.90
44513;DHT22;30219;50.588;9.504;2023-05-08T03:20:05;10.80;99.90
44513;DHT22;30219;50.588;9.504;2023-05-08T03:22:33;10.70;99.90
44513;DHT22;30219;50.588;9.504;2023-05-08T03:24:59;10.70;99.90
44513;DHT22;30219;50.588;9.504;2023-05-08T03:27:26;10.60;99.90
44513;DHT22;30219;50.588;9.504;2023-05-08T03:29:52;10.40;99.90
44513;DHT22;30219;50.588;9.504;2023-05-08T03:32:18;10.30;99.90
44513;DHT22;30219;50.588;9.504;2023-05-08T03:34:45;10.30;99.90
44513;DHT22;30219;50.588;9.504;2023-05-08T03:37:10;10.10;99.90
44513;DHT22;30219;50.588;9.504;2023-05-08T03:39:36;10.10;99.90
44513;DHT22;30219;50.588;9.504;2023-05-08T03:42:01;10.00;99.90
44513;DHT22;30219;50.588;9.504;2023-05-08T03:44:27;10.00;99.90
44513;DHT22;30219;50.588;9.504;2023-05-08T03:46:54;10.10;99.90
44513;DHT22;30219;50.588;9.504;2023-05-08T03:49:20;10.10;99.90
44513;DHT22;30219;50.588;9.504;2023-05-08T03:51:46;10.20;99.90
44513;DHT22;30219;50.588;9.504;2023-05-08T03:54:12;10.30;99.90
44513;DHT22;30219;50.588;9.504;2023-05-08T03:56:37;10.30;99.90
44513;DHT22;30219;50.588;9.504;2023-05-08T03:59:06;10.40;99.90
44513;DHT22;30219;50.588;9.504;2023-05-08T04:01:37;10.30;99.90
44513;DHT22;30219;50.588;9.504;2023-05-08T04:04:21;10.40;99.90
44513;DHT22;30219;50.588;9.504;2023-05-08T04:06:49;10.40;99.90
44513;DHT22;30219;50.588;9.504;2023-05-08T04:12:02;10.40;99.90
44513;DHT22;30219;50.588;9.504;2023-05-08T04:14:52;10.40;99.90
44513;DHT22;30219;50.588;9.504;2023-05-08T04:17:16;10.40;99.90
44513;DHT22;30219;50.588;9.504;2023-05-08T04:19:45;10.40;99.90
44513;DHT22;30219;50.588;9.504;2023-05-08T04:22:11;10.40;99.90
44513;DHT22;30219;50.588;9.504;2023-05-08T04:24:38;10.40;99.90
44513;DHT22;30219;50.588;9.504;2023-05-08T04:27:05;10.50;99.90
44513;DHT22;30219;50.588;9.504;2023-05-08T04:29:31;10.50;99.90
44513;DHT22;30219;50.588;9.504;2023-05-08T04:31:57;10.50;99.90
44513;DHT22;30219;50.588;9.504;2023-05-08T04:34:24;10.50;99.90
44513;DHT22;30219;50.588;9.504;2023-05-08T04:36:50;10.50;99.90
44513;DHT22;30219;50.588;9.504;2023-05-08T04:39:15;10.50;99.90
44513;DHT22;30219;50.588;9.504;2023-05-08T04:41:41;10.50;99.90
44513;DHT22;30219;50.588;9.504;2023-05-08T04:44:06;10.50;99.90
44513;DHT22;30219;50.588;9.504;2023-05-08T04:46:32;10.50;99.90
44513;DHT22;30219;50.588;9.504;2023-05-08T04:48:57;10.50;99.90
44513;DHT22;30219;50.588;9.504;2023-05-08T04:51:23;10.50;99.90
44513;DHT22;30219;50.588;9.504;2023-05-08T04:53:48;10.50;99.90
44513;DHT22;30219;50.588;9.504;2023-05-08T04:56:14;10.60;99.90
44513;DHT22;30219;50.588;9.504;2023-05-08T04:58:39;10.60;99.90
44513;DHT22;30219;50.588;9.504;2023-05-08T05:01:05;10.60;99.90
44513;DHT22;30219;50.588;9.504;2023-05-08T05:03:30;10.70;99.90
44513;DHT22;30219;50.588;9.504;2023-05-08T05:05:59;10.60;99.90
44513;DHT22;30219;50.588;9.504;2023-05-08T05:08:25;10.60;99.90
44513;DHT22;30219;50.588;9.504;2023-05-08T05:10:51;10.70;99.90
44513;DHT22;30219;50.588;9.504;2023-05-08T05:13:16;10.70;99.90
44513;DHT22;30219;50.588;9.504;2023-05-08T05:15:42;10.70;99.90
44513;DHT22;30219;50.588;9.504;2023-05-08T05:18:07;10.70;99.90
44513;DHT22;30219;50.588;9.504;2023-05-08T05:20:33;10.80;99.90
44513;DHT22;30219;50.588;9.504;2023-05-08T05:22:58;10.80;99.90
44513;DHT22;30219;50.588;9.504;2023-05-08T05:25:24;10.90;99.90
44513;DHT22;30219;50.588;9.504;2023-05-08T05:27:49;10.90;99.90
44513;DHT22;30219;50.588;9.504;2023-05-08T05:30:15;10.90;99.90
44513;DHT22;30219;50.588;9.504;2023-05-08T05:32:40;11.00;99.90
44513;DHT22;30219;50.588;9.504;2023-05-08T05:35:06;11.00;99.90
44513;DHT22;30219;50.588;9.504;2023-05-08T05:37:33;11.10;99.90
44513;DHT22;30219;50.588;9.504;2023-05-08T05:39:58;11.20;99.90
44513;DHT22;30219;50.588;9.504;2023-05-08T05:42:24;11.30;99.90
44513;DHT22;30219;50.588;9.504;2023-05-08T05:44:50;11.20;99.90
44513;DHT22;30219;50.588;9.504;2023-05-08T05:47:15;11.20;99.90
44513;DHT22;30219;50.588;9.504;2023-05-08T05:49:40;11.30;99.90
44513;DHT22;30219;50.588;9.504;2023-05-08T05:52:11;11.40;99.90
44513;DHT22;30219;50.588;9.504;2023-05-08T05:54:36;11.50;99.90
44513;DHT22;30219;50.588;9.504;2023-05-08T05:57:02;11.50;99.90
44513;DHT22;30219;50.588;9.504;2023-05-08T05:59:28;11.60;99.90
44513;DHT22;30219;50.588;9.504;2023-05-08T06:01:53;11.60;99.90
44513;DHT22;30219;50.588;9.504;2023-05-08T06:04:19;11.60;99.90
44513;DHT22;30219;50.588;9.504;2023-05-08T06:06:44;11.60;99.90
44513;DHT22;30219;50.588;9.504;2023-05-08T06:09:10;11.80;99.90
44513;DHT22;30219;50.588;9.504;2023-05-08T06:11:35;11.90;99.90
44513;DHT22;30219;50.588;9.504;2023-05-08T06:14:01;11.90;99.90
44513;DHT22;30219;50.588;9.504;2023-05-08T06:16:26;12.10;99.90
44513;DHT22;30219;50.588;9.504;2023-05-08T06:18:52;12.20;99.90
44513;DHT22;30219;50.588;9.504;2023-05-08T06:21:17;12.30;99.90
44513;DHT22;30219;50.588;9.504;2023-05-08T06:23:43;12.40;99.90
44513;DHT22;30219;50.588;9.504;2023-05-08T06:26:08;12.50;99.90
44513;DHT22;30219;50.588;9.504;2023-05-08T06:28:34;12.60;99.90
44513;DHT22;30219;50.588;9.504;2023-05-08T06:30:59;12.60;99.90
44513;DHT22;30219;50.588;9.504;2023-05-08T06:33:25;12.70;99.90
44513;DHT22;30219;50.588;9.504;2023-05-08T06:35:50;12.70;99.90
44513;DHT22;30219;50.588;9.504;2023-05-08T06:38:16;12.70;99.90
44513;DHT22;30219;50.588;9.504;2023-05-08T06:40:44;12.70;99.90
44513;DHT22;30219;50.588;9.504;2023-05-08T06:43:11;12.80;99.90
44513;DHT22;30219;50.588;9.504;2023-05-08T06:45:36;13.00;99.90
44513;DHT22;30219;50.588;9.504;2023-05-08T06:48:02;13.00;99.90
44513;DHT22;30219;50.588;9.504;2023-05-08T06:50:27;13.00;99.90
44513;DHT22;30219;50.588;9.504;2023-05-08T06:52:52;13.00;99.90
44513;DHT22;30219;50.588;9.504;2023-05-08T06:55:18;13.10;99.90
44513;DHT22;30219;50.588;9.504;2023-05-08T06:57:43;13.30;99.90
44513;DHT22;30219;50.588;9.504;2023-05-08T07:00:09;13.50;99.90
44513;DHT22;30219;50.588;9.504;2023-05-08T07:02:35;13.60;99.90
44513;DHT22;30219;50.588;9.504;2023-05-08T07:05:00;13.70;99.90
44513;DHT22;30219;50.588;9.504;2023-05-08T07:07:26;13.70;99.90
44513;DHT22;30219;50.588;9.504;2023-05-08T07:09:51;13.90;99.90
44513;DHT22;30219;50.588;9.504;2023-05-08T07:12:17;14.20;99.90
44513;DHT22;30219;50.588;9.504;2023-05-08T07:14:42;14.30;99.90
44513;DHT22;30219;50.588;9.504;2023-05-08T07:17:08;14.50;99.90
44513;DHT22;30219;50.588;9.504;2023-05-08T07:19:34;14.50;99.90
44513;DHT22;30219;50.588;9.504;2023-05-08T07:22:00;14.60;99.90
44513;DHT22;30219;50.588;9.504;2023-05-08T07:24:25;14.70;99.90
44513;DHT22;30219;50.588;9.504;2023-05-08T07:26:51;14.70;99.90
44513;DHT22;30219;50.588;9.504;2023-05-08T07:29:16;14.60;99.90
44513;DHT22;30219;50.588;9.504;2023-05-08T07:31:42;14.50;99.90
44513;DHT22;30219;50.588;9.504;2023-05-08T07:34:10;14.50;99.90
44513;DHT22;30219;50.588;9.504;2023-05-08T07:36:35;14.80;99.90
44513;DHT22;30219;50.588;9.504;2023-05-08T07:39:00;15.10;99.90
44513;DHT22;30219;50.588;9.504;2023-05-08T07:41:26;15.20;99.90
44513;DHT22;30219;50.588;9.504;2023-05-08T07:43:51;15.30;99.90
44513;DHT22;30219;50.588;9.504;2023-05-08T07:46:17;15.50;99.90
44513;DHT22;30219;50.588;9.504;2023-05-08T07:48:43;15.50;99.90
44513;DHT22;30219;50.588;9.504;2023-05-08T07:51:08;15.30;99.90
44513;DHT22;30219;50.588;9.504;2023-05-08T07:53:35;15.40;99.90
44513;DHT22;30219;50.588;9.504;2023-05-08T07:56:01;15.60;99.90
44513;DHT22;30219;50.588;9.504;2023-05-08T07:58:26;15.70;99.90
44513;DHT22;30219;50.588;9.504;2023-05-08T08:00:52;15.80;99.90
44513;DHT22;30219;50.588;9.504;2023-05-08T08:03:18;15.60;99.90
44513;DHT22;30219;50.588;9.504;2023-05-08T08:05:43;15.80;99.90
44513;DHT22;30219;50.588;9.504;2023-05-08T08:08:09;15.80;99.90
44513;DHT22;30219;50.588;9.504;2023-05-08T08:10:34;15.90;99.90
44513;DHT22;30219;50.588;9.504;2023-05-08T08:13:00;16.00;99.90
44513;DHT22;30219;50.588;9.504;2023-05-08T08:15:28;16.30;99.90
44513;DHT22;30219;50.588;9.504;2023-05-08T08:17:54;16.40;99.90
44513;DHT22;30219;50.588;9.504;2023-05-08T08:20:19;16.60;99.90
44513;DHT22;30219;50.588;9.504;2023-05-08T08:22:45;16.80;99.90
44513;DHT22;30219;50.588;9.504;2023-05-08T08:25:10;17.00;99.90
44513;DHT22;30219;50.588;9.504;2023-05-08T08:27:36;17.30;99.90
44513;DHT22;30219;50.588;9.504;2023-05-08T08:30:02;17.20;99.90
44513;DHT22;30219;50.588;9.504;2023-05-08T08:32:27;17.50;99.90
44513;DHT22;30219;50.588;9.504;2023-05-08T08:34:52;17.70;99.90
44513;DHT22;30219;50.588;9.504;2023-05-08T08:37:18;17.70;99.90
44513;DHT22;30219;50.588;9.504;2023-05-08T08:39:43;17.60;99.90
44513;DHT22;30219;50.588;9.504;2023-05-08T08:42:09;17.50;99.90
44513;DHT22;30219;50.588;9.504;2023-05-08T08:44:34;17.00;99.90
44513;DHT22;30219;50.588;9.504;2023-05-08T08:47:00;17.00;99.90
44513;DHT22;30219;50.588;9.504;2023-05-08T08:49:28;17.20;99.90
44513;DHT22;30219;50.588;9.504;2023-05-08T08:52:01;17.10;99.90
44513;DHT22;30219;50.588;9.504;2023-05-08T08:54:27;17.10;99.90
44513;DHT22;30219;50.588;9.504;2023-05-08T08:56:54;17.10;99.90
44513;DHT22;30219;50.588;9.504;2023-05-08T08:59:19;17.20;99.90
44513;DHT22;30219;50.588;9.504;2023-05-08T09:01:49;17.20;99.90
44513;DHT22;30219;50.588;9.504;2023-05-08T09:04:15;17.20;99.90
44513;DHT22;30219;50.588;9.504;2023-05-08T09:06:41;17.50;99.90
44513;DHT22;30219;50.588;9.504;2023-05-08T09:09:07;17.90;99.90
44513;DHT22;30219;50.588;9.504;2023-05-08T09:11:32;18.30;99.90
44513;DHT22;30219;50.588;9.504;2023-05-08T09:13:58;18.70;99.90
44513;DHT22;30219;50.588;9.504;2023-05-08T09:16:23;18.50;99.90
44513;DHT22;30219;50.588;9.504;2023-05-08T09:18:49;18.50;99.90
44513;DHT22;30219;50.588;9.504;2023-05-08T09:21:15;18.60;99.90
44513;DHT22;30219;50.588;9.504;2023-05-08T09:24:00;18.20;99.90
44513;DHT22;30219;50.588;9.504;2023-05-08T09:26:31;18.10;99.90
44513;DHT22;30219;50.588;9.504;2023-05-08T09:31:35;18.20;99.90
44513;DHT22;30219;50.588;9.504;2023-05-08T09:34:04;18.40;99.90
44513;DHT22;30219;50.588;9.504;2023-05-08T09:36:30;18.60;99.90
44513;DHT22;30219;50.588;9.504;2023-05-08T09:38:56;18.60;99.90
44513;DHT22;30219;50.588;9.504;2023-05-08T09:41:21;18.80;99.90
44513;DHT22;30219;50.588;9.504;2023-05-08T09:44:05;18.70;99.90
44513;DHT22;30219;50.588;9.504;2023-05-08T09:46:31;18.60;99.90
44513;DHT22;30219;50.588;9.504;2023-05-08T09:48:59;18.50;99.90
44513;DHT22;30219;50.588;9.504;2023-05-08T09:51:25;18.50;99.90
44513;DHT22;30219;50.588;9.504;2023-05-08T09:53:51;18.50;99.90
44513;DHT22;30219;50.588;9.504;2023-05-08T09:56:36;18.60;99.90
44513;DHT22;30219;50.588;9.504;2023-05-08T09:59:03;18.90;99.90
44513;DHT22;30219;50.588;9.504;2023-05-08T10:01:34;19.10;99.90
44513;DHT22;30219;50.588;9.504;2023-05-08T10:04:00;19.30;99.90
44513;DHT22;30219;50.588;9.504;2023-05-08T10:06:25;19.40;99.90
44513;DHT22;30219;50.588;9.504;2023-05-08T10:09:05;19.60;99.90
44513;DHT22;30219;50.588;9.504;2023-05-08T10:11:31;19.60;99.90
44513;DHT22;30219;50.588;9.504;2023-05-08T10:13:56;19.80;99.90
44513;DHT22;30219;50.588;9.504;2023-05-08T10:16:22;19.30;99.90
44513;DHT22;30219;50.588;9.504;2023-05-08T10:18:48;19.10;99.90
44513;DHT22;30219;50.588;9.504;2023-05-08T10:21:14;19.10;99.90
44513;DHT22;30219;50.588;9.504;2023-05-08T10:23:43;19.10;99.90
44513;DHT22;30219;50.588;9.504;2023-05-08T10:26:12;19.20;99.90
44513;DHT22;30219;50.588;9.504;2023-05-08T10:28:43;19.20;99.90
44513;DHT22;30219;50.588;9.504;2023-05-08T10:31:13;18.80;99.90
44513;DHT22;30219;50.588;9.504;2023-05-08T10:33:41;18.70;99.90
44513;DHT22;30219;50.588;9.504;2023-05-08T10:36:09;18.60;99.90
44513;DHT22;30219;50.588;9.504;2023-05-08T10:38:35;18.60;99.90
44513;DHT22;30219;50.588;9.504;2023-05-08T10:41:01;18.80;99.90
44513;DHT22;30219;50.588;9.504;2023-05-08T10:43:27;19.40;99.90
44513;DHT22;30219;50.588;9.504;2023-05-08T10:45:53;20.00;99.90
44513;DHT22;30219;50.588;9.504;2023-05-08T10:48:27;20.40;99.90
44513;DHT22;30219;50.588;9.504;2023-05-08T10:51:14;20.80;99.90
44513;DHT22;30219;50.588;9.504;2023-05-08T10:53:51;21.20;99.90
44513;DHT22;30219;50.588;9.504;2023-05-08T10:56:23;21.00;99.50
44513;DHT22;30219;50.588;9.504;2023-05-08T10:58:49;21.00;99.30
44513;DHT22;30219;50.588;9.504;2023-05-08T11:01:19;20.80;99.40
44513;DHT22;30219;50.588;9.504;2023-05-08T11:03:46;20.70;99.70
44513;DHT22;30219;50.588;9.504;2023-05-08T11:06:11;20.80;99.70
44513;DHT22;30219;50.588;9.504;2023-05-08T11:08:45;21.00;99.30
44513;DHT22;30219;50.588;9.504;2023-05-08T11:13:47;20.60;99.90
44513;DHT22;30219;50.588;9.504;2023-05-08T11:16:14;20.00;99.90
44513;DHT22;30219;50.588;9.504;2023-05-08T11:21:24;19.80;99.90
44513;DHT22;30219;50.588;9.504;2023-05-08T11:23:56;19.50;99.90
44513;DHT22;30219;50.588;9.504;2023-05-08T11:26:37;19.40;99.90
44513;DHT22;30219;50.588;9.504;2023-05-08T11:29:07;19.10;99.90
44513;DHT22;30219;50.588;9.504;2023-05-08T11:31:49;19.00;99.90
44513;DHT22;30219;50.588;9.504;2023-05-08T11:36:59;18.50;99.90
44513;DHT22;30219;50.588;9.504;2023-05-08T11:39:26;18.10;99.90
44513;DHT22;30219;50.588;9.504;2023-05-08T11:41:51;18.00;99.90
44513;DHT22;30219;50.588;9.504;2023-05-08T11:44:20;18.00;99.90
44513;DHT22;30219;50.588;9.504;2023-05-08T11:46:50;17.70;99.90
44513;DHT22;30219;50.588;9.504;2023-05-08T11:49:16;17.50;99.90
44513;DHT22;30219;50.588;9.504;2023-05-08T11:51:47;17.30;99.90
44513;DHT22;30219;50.588;9.504;2023-05-08T11:54:13;17.10;99.90
44513;DHT22;30219;50.588;9.504;2023-05-08T11:56:39;17.10;99.90
44513;DHT22;30219;50.588;9.504;2023-05-08T11:59:06;17.10;99.90
44513;DHT22;30219;50.588;9.504;2023-05-08T12:01:33;17.10;99.90
44513;DHT22;30219;50.588;9.504;2023-05-08T12:04:02;17.10;99.90
44513;DHT22;30219;50.588;9.504;2023-05-08T12:06:28;17.40;99.90
44513;DHT22;30219;50.588;9.504;2023-05-08T12:08:53;17.40;99.90
44513;DHT22;30219;50.588;9.504;2023-05-08T12:11:22;17.70;99.90
44513;DHT22;30219;50.588;9.504;2023-05-08T12:13:51;17.90;99.90
44513;DHT22;30219;50.588;9.504;2023-05-08T12:16:17;17.90;99.90
44513;DHT22;30219;50.588;9.504;2023-05-08T12:18:42;17.90;99.90
44513;DHT22;30219;50.588;9.504;2023-05-08T12:21:08;18.00;99.90
44513;DHT22;30219;50.588;9.504;2023-05-08T12:23:34;17.90;99.90
44513;DHT22;30219;50.588;9.504;2023-05-08T12:26:00;18.00;99.90
44513;DHT22;30219;50.588;9.504;2023-05-08T12:28:26;17.90;99.90
44513;DHT22;30219;50.588;9.504;2023-05-08T12:30:51;17.70;99.90
44513;DHT22;30219;50.588;9.504;2023-05-08T12:33:18;17.50;99.90
44513;DHT22;30219;50.588;9.504;2023-05-08T12:35:43;17.20;99.90
44513;DHT22;30219;50.588;9.504;2023-05-08T12:38:09;17.00;99.90
44513;DHT22;30219;50.588;9.504;2023-05-08T12:40:39;17.00;99.90
44513;DHT22;30219;50.588;9.504;2023-05-08T12:43:07;17.10;99.90
44513;DHT22;30219;50.588;9.504;2023-05-08T12:45:39;17.30;99.90
44513;DHT22;30219;50.588;9.504;2023-05-08T12:48:06;17.40;99.90
44513;DHT22;30219;50.588;9.504;2023-05-08T12:50:36;17.40;99.90
44513;DHT22;30219;50.588;9.504;2023-05-08T12:53:05;17.20;99.90
44513;DHT22;30219;50.588;9.504;2023-05-08T12:55:32;17.10;99.90
44513;DHT22;30219;50.588;9.504;2023-05-08T13:00:23;16.90;99.90
44513;DHT22;30219;50.588;9.504;2023-05-08T13:02:53;16.90;99.90
44513;DHT22;30219;50.588;9.504;2023-05-08T13:05:19;17.00;99.90
44513;DHT22;30219;50.588;9.504;2023-05-08T13:07:45;16.90;99.90
44513;DHT22;30219;50.588;9.504;2023-05-08T13:10:10;17.00;99.90
44513;DHT22;30219;50.588;9.504;2023-05-08T13:12:36;17.00;99.90
44513;DHT22;30219;50.588;9.504;2023-05-08T13:15:01;17.00;99.90
44513;DHT22;30219;50.588;9.504;2023-05-08T13:17:29;17.10;99.90
44513;DHT22;30219;50.588;9.504;2023-05-08T13:19:54;17.20;99.90
44513;DHT22;30219;50.588;9.504;2023-05-08T13:22:20;17.10;99.90
44513;DHT22;30219;50.588;9.504;2023-05-08T13:24:47;17.30;99.90
44513;DHT22;30219;50.588;9.504;2023-05-08T13:27:12;17.40;99.90
44513;DHT22;30219;50.588;9.504;2023-05-08T13:29:38;17.50;99.90
44513;DHT22;30219;50.588;9.504;2023-05-08T13:32:04;17.70;99.90
44513;DHT22;30219;50.588;9.504;2023-05-08T13:34:30;17.90;99.90
44513;DHT22;30219;50.588;9.504;2023-05-08T13:36:55;18.00;99.90
44513;DHT22;30219;50.588;9.504;2023-05-08T13:39:21;18.00;99.90
44513;DHT22;30219;50.588;9.504;2023-05-08T13:41:46;18.10;99.90
44513;DHT22;30219;50.588;9.504;2023-05-08T13:44:12;18.20;99.90
44513;DHT22;30219;50.588;9.504;2023-05-08T13:46:37;18.40;99.90
44513;DHT22;30219;50.588;9.504;2023-05-08T13:49:03;18.50;99.90
44513;DHT22;30219;50.588;9.504;2023-05-08T13:51:28;18.50;99.90
44513;DHT22;30219;50.588;9.504;2023-05-08T13:53:54;18.80;99.90
44513;DHT22;30219;50.588;9.504;2023-05-08T13:56:19;18.60;99.90
44513;DHT22;30219;50.588;9.504;2023-05-08T13:58:45;18.60;99.90
44513;DHT22;30219;50.588;9.504;2023-05-08T14:01:11;18.70;99.90
44513;DHT22;30219;50.588;9.504;2023-05-08T14:03:36;18.80;99.90
44513;DHT22;30219;50.588;9.504;2023-05-08T14:06:03;19.00;99.90
44513;DHT22;30219;50.588;9.504;2023-05-08T14:08:29;19.10;99.90
44513;DHT22;30219;50.588;9.504;2023-05-08T14:10:54;19.10;99.90
44513;DHT22;30219;50.588;9.504;2023-05-08T14:13:20;19.20;99.90
44513;DHT22;30219;50.588;9.504;2023-05-08T14:15:45;19.40;99.90
44513;DHT22;30219;50.588;9.504;2023-05-08T14:18:11;19.30;99.90
44513;DHT22;30219;50.588;9.504;2023-05-08T14:20:36;19.50;99.90
44513;DHT22;30219;50.588;9.504;2023-05-08T14:23:02;19.50;99.90
44513;DHT22;30219;50.588;9.504;2023-05-08T14:25:27;19.60;99.90
44513;DHT22;30219;50.588;9.504;2023-05-08T14:27:53;19.50;99.90
44513;DHT22;30219;50.588;9.504;2023-05-08T14:30:18;19.20;99.90
44513;DHT22;30219;50.588;9.504;2023-05-08T14:32:44;19.20;99.90
44513;DHT22;30219;50.588;9.504;2023-05-08T14:35:09;19.50;99.90
44513;DHT22;30219;50.588;9.504;2023-05-08T14:37:35;19.90;99.90
44513;DHT22;30219;50.588;9.504;2023-05-08T14:40:00;19.90;99.90
44513;DHT22;30219;50.588;9.504;2023-05-08T14:42:26;19.90;99.90
44513;DHT22;30219;50.588;9.504;2023-05-08T14:44:51;19.80;99.90
44513;DHT22;30219;50.588;9.504;2023-05-08T14:47:17;19.80;99.90
44513;DHT22;30219;50.588;9.504;2023-05-08T14:49:42;19.50;99.90
44513;DHT22;30219;50.588;9.504;2023-05-08T14:52:08;19.70;99.90
44513;DHT22;30219;50.588;9.504;2023-05-08T14:54:33;19.70;99.90
44513;DHT22;30219;50.588;9.504;2023-05-08T14:56:59;19.60;99.90
44513;DHT22;30219;50.588;9.504;2023-05-08T14:59:24;19.60;99.90
44513;DHT22;30219;50.588;9.504;2023-05-08T15:01:50;19.50;99.90
44513;DHT22;30219;50.588;9.504;2023-05-08T15:04:15;19.50;99.90
44513;DHT22;30219;50.588;9.504;2023-05-08T15:06:41;19.50;99.90
44513;DHT22;30219;50.588;9.504;2023-05-08T15:09:07;19.40;99.90
44513;DHT22;30219;50.588;9.504;2023-05-08T15:11:33;19.40;99.90
44513;DHT22;30219;50.588;9.504;2023-05-08T15:14:00;19.60;99.90
44513;DHT22;30219;50.588;9.504;2023-05-08T15:16:26;19.50;99.90
44513;DHT22;30219;50.588;9.504;2023-05-08T15:18:51;19.30;99.90
44513;DHT22;30219;50.588;9.504;2023-05-08T15:21:17;19.30;99.90
44513;DHT22;30219;50.588;9.504;2023-05-08T15:23:44;19.20;99.90
44513;DHT22;30219;50.588;9.504;2023-05-08T15:26:10;19.10;99.90
44513;DHT22;30219;50.588;9.504;2023-05-08T15:28:35;19.10;99.90
44513;DHT22;30219;50.588;9.504;2023-05-08T15:31:02;19.00;99.90
44513;DHT22;30219;50.588;9.504;2023-05-08T15:33:28;19.00;99.90
44513;DHT22;30219;50.588;9.504;2023-05-08T15:35:53;19.10;99.90
44513;DHT22;30219;50.588;9.504;2023-05-08T15:38:19;19.00;99.90
44513;DHT22;30219;50.588;9.504;2023-05-08T15:40:44;19.10;99.90
44513;DHT22;30219;50.588;9.504;2023-05-08T15:43:10;19.10;99.90
44513;DHT22;30219;50.588;9.504;2023-05-08T15:45:35;19.10;99.90
44513;DHT22;30219;50.588;9.504;2023-05-08T15:48:01;19.10;99.90
44513;DHT22;30219;50.588;9.504;2023-05-08T15:50:26;19.10;99.90
44513;DHT22;30219;50.588;9.504;2023-05-08T15:52:52;19.20;99.90
44513;DHT22;30219;50.588;9.504;2023-05-08T15:55:18;19.40;99.90
44513;DHT22;30219;50.588;9.504;2023-05-08T15:57:43;19.40;99.90
44513;DHT22;30219;50.588;9.504;2023-05-08T16:00:09;19.30;99.90
44513;DHT22;30219;50.588;9.504;2023-05-08T16:02:35;19.50;99.90